Norwegian Breakaway — C6ZJ3 — position and weather

sailwx.info

Track history (hours):
 
Tides and Currents Weather Stations Pressure Air Temp Water Temp Dewpoint Dewpoint Depression Visibility Wind Speed Wind Dir Waves Ship Positions

Norwegian Breakaway

Last reported at 2019-Aug-23 22:36 UTC. Time now 2019-Aug-24 08:05 UTC.
Position N 20°37' W 086°55'.

Length 325 m; draft 8.6 m.

Type: Passenger vessel. MMSI: 311050800.

Date/timePositionNaut miles runAvg speedWind from/ knotsBaromVisibWave heightAir tempDewpointWater temp
2019-Aug-23 22:36N 20°37' W 086°55'219.1
2019-Aug-23 22:30N 20°36' W 086°56'510.4
2019-Aug-23 22:00N 20°31' W 086°57'0 0.0
2019-Aug-23 21:30N 20°31' W 086°57'0 0.0
2019-Aug-23 20:59N 20°31' W 086°57'0 0.0
2019-Aug-23 20:28N 20°31' W 086°57'0 0.0
2019-Aug-23 20:00N 20°31' W 086°57'0 0.0
2019-Aug-23 19:30N 20°31' W 086°57'0 0.0
2019-Aug-23 19:00N 20°31' W 086°57'0 0.0
2019-Aug-23 18:30N 20°31' W 086°57'0 0.0
2019-Aug-23 18:00N 20°31' W 086°57'0 0.0
2019-Aug-23 17:30N 20°31' W 086°57'0 0.0
2019-Aug-23 17:00N 20°31' W 086°57'0 0.0
2019-Aug-23 16:30N 20°31' W 086°57'0 0.0
2019-Aug-23 16:00N 20°31' W 086°57'0 0.0
2019-Aug-23 15:27N 20°31' W 086°57'0 0.0
2019-Aug-23 15:00N 20°31' W 086°57'0 0.0
2019-Aug-23 14:30N 20°31' W 086°57'0 0.0
2019-Aug-23 14:00N 20°31' W 086°57'0 0.0
2019-Aug-23 13:30N 20°31' W 086°57'0 0.0
2019-Aug-23 12:57N 20°31' W 086°57'0 0.0
2019-Aug-23 12:30N 20°31' W 086°57'1 2.7
2019-Aug-23 12:00N 20°30' W 086°58'4 8.3
2019-Aug-23 11:30N 20°27' W 087°02'510.1
2019-Aug-23 11:00N 20°23' W 087°04'610.4
2019-Aug-23 10:26N 20°17' W 087°04'  
2019-Aug-18 21:49N 25°34' W 079°52'517.3
2019-Aug-18 21:30N 25°38' W 079°56'917.1
2019-Aug-18 21:00N 25°45' W 080°02'510.2
2019-Aug-18 20:30N 25°46' W 080°08'3 5.2
2019-Aug-18 20:00N 25°47' W 080°10'0 0.0
2019-Aug-18 19:30N 25°47' W 080°10'0 0.0
2019-Aug-18 19:00N 25°47' W 080°10'0 0.0
2019-Aug-18 18:30N 25°47' W 080°10'0 0.0
2019-Aug-18 18:00N 25°47' W 080°10'0 0.0
2019-Aug-18 17:30N 25°47' W 080°10'0 0.0
2019-Aug-18 17:00N 25°47' W 080°10'0 0.0
2019-Aug-18 16:30N 25°47' W 080°10'0 0.0
2019-Aug-18 16:00N 25°47' W 080°10'0 0.0
2019-Aug-18 15:30N 25°47' W 080°10'0 0.0
2019-Aug-18 15:00N 25°47' W 080°10'0 0.0
2019-Aug-18 14:27N 25°47' W 080°10'0 0.0
2019-Aug-18 14:00N 25°47' W 080°10'0 0.0
2019-Aug-18 13:30N 25°47' W 080°10'0 0.0
2019-Aug-18 12:57N 25°47' W 080°10'0 0.0
2019-Aug-18 12:30N 25°47' W 080°10'0 0.0
2019-Aug-18 12:00N 25°47' W 080°10'0 0.0
2019-Aug-18 11:30N 25°47' W 080°10'0 0.0
2019-Aug-18 11:00N 25°47' W 080°10'0 0.0
2019-Aug-18 10:30N 25°47' W 080°10'1 1.0
2019-Aug-18 10:01N 25°47' W 080°11'2 4.6
2019-Aug-18 09:31N 25°46' W 080°09'611.3
2019-Aug-18 09:01N 25°47' W 080°02'510.7
2019-Aug-18 08:30N 25°44' W 079°57'713.1
2019-Aug-18 08:01N 25°38' W 079°56'1313.1
2019-Aug-18 07:00N 25°24' W 079°55'713.3
2019-Aug-18 06:31N 25°18' W 079°58'47515.0
2019-Aug-16 22:45N 20°38' W 086°54'518.9
2019-Aug-16 22:30N 20°34' W 086°57'3 6.1
2019-Aug-16 21:59N 20°31' W 086°57'0 0.0
2019-Aug-16 21:29N 20°31' W 086°57'0 0.0
2019-Aug-16 20:59N 20°31' W 086°57'0 0.0
2019-Aug-16 20:29N 20°31' W 086°57'0 0.0
2019-Aug-16 19:59N 20°31' W 086°57'0 0.0
2019-Aug-16 19:29N 20°31' W 086°57'0 0.0
2019-Aug-16 18:59N 20°31' W 086°57'0 0.0
2019-Aug-16 18:29N 20°31' W 086°57'0 0.0
2019-Aug-16 17:56N 20°31' W 086°57'0 0.0
2019-Aug-16 17:29N 20°31' W 086°57'0 0.0
2019-Aug-16 16:59N 20°31' W 086°57'0 0.0
2019-Aug-16 16:26N 20°31' W 086°57'0 0.0
2019-Aug-16 15:59N 20°31' W 086°57'0 0.0
2019-Aug-16 15:29N 20°31' W 086°57'0 0.0
2019-Aug-16 14:59N 20°31' W 086°57'0 0.0
2019-Aug-16 14:26N 20°31' W 086°57'0 0.0
2019-Aug-16 13:59N 20°31' W 086°57'0 0.0
2019-Aug-16 13:29N 20°31' W 086°57'0 0.0
2019-Aug-16 12:59N 20°31' W 086°57'0 0.0
2019-Aug-16 12:30N 20°31' W 086°57'1 2.7
2019-Aug-16 12:00N 20°30' W 086°58'4 8.1
2019-Aug-16 11:30N 20°27' W 087°02'510.3
2019-Aug-16 11:00N 20°23' W 087°04'510.7
2019-Aug-16 10:30N 20°17' W 087°04'  
Track history (hours):
 
Tides and Currents Weather Stations Pressure Air Temp Water Temp Dewpoint Dewpoint Depression Visibility Wind Speed Wind Dir Waves Ship Positions

Norwegian Breakaway

Last reported at 2019-Aug-23 22:36 UTC. Time now 2019-Aug-24 08:05 UTC.
Position N 20°37' W 086°55'.

Length 325 m; draft 8.6 m.

Type: Passenger vessel. MMSI: 311050800.

Date/timePositionNaut miles runAvg speedWind from/ knotsBaromVisibWave heightAir tempDewpointWater temp
2019-Aug-23 22:36N 20°37' W 086°55'219.1
2019-Aug-23 22:30N 20°36' W 086°56'510.4
2019-Aug-23 22:00N 20°31' W 086°57'0 0.0
2019-Aug-23 21:30N 20°31' W 086°57'0 0.0
2019-Aug-23 20:59N 20°31' W 086°57'0 0.0
2019-Aug-23 20:28N 20°31' W 086°57'0 0.0
2019-Aug-23 20:00N 20°31' W 086°57'0 0.0
2019-Aug-23 19:30N 20°31' W 086°57'0 0.0
2019-Aug-23 19:00N 20°31' W 086°57'0 0.0
2019-Aug-23 18:30N 20°31' W 086°57'0 0.0
2019-Aug-23 18:00N 20°31' W 086°57'0 0.0
2019-Aug-23 17:30N 20°31' W 086°57'0 0.0
2019-Aug-23 17:00N 20°31' W 086°57'0 0.0
2019-Aug-23 16:30N 20°31' W 086°57'0 0.0
2019-Aug-23 16:00N 20°31' W 086°57'0 0.0
2019-Aug-23 15:27N 20°31' W 086°57'0 0.0
2019-Aug-23 15:00N 20°31' W 086°57'0 0.0
2019-Aug-23 14:30N 20°31' W 086°57'0 0.0
2019-Aug-23 14:00N 20°31' W 086°57'0 0.0
2019-Aug-23 13:30N 20°31' W 086°57'0 0.0
2019-Aug-23 12:57N 20°31' W 086°57'0 0.0
2019-Aug-23 12:30N 20°31' W 086°57'1 2.7
2019-Aug-23 12:00N 20°30' W 086°58'4 8.3
2019-Aug-23 11:30N 20°27' W 087°02'510.1
2019-Aug-23 11:00N 20°23' W 087°04'610.4
2019-Aug-23 10:26N 20°17' W 087°04'  
2019-Aug-18 21:49N 25°34' W 079°52'517.3
2019-Aug-18 21:30N 25°38' W 079°56'917.1
2019-Aug-18 21:00N 25°45' W 080°02'510.2
2019-Aug-18 20:30N 25°46' W 080°08'3 5.2
2019-Aug-18 20:00N 25°47' W 080°10'0 0.0
2019-Aug-18 19:30N 25°47' W 080°10'0 0.0
2019-Aug-18 19:00N 25°47' W 080°10'0 0.0
2019-Aug-18 18:30N 25°47' W 080°10'0 0.0
2019-Aug-18 18:00N 25°47' W 080°10'0 0.0
2019-Aug-18 17:30N 25°47' W 080°10'0 0.0
2019-Aug-18 17:00N 25°47' W 080°10'0 0.0
2019-Aug-18 16:30N 25°47' W 080°10'0 0.0
2019-Aug-18 16:00N 25°47' W 080°10'0 0.0
2019-Aug-18 15:30N 25°47' W 080°10'0 0.0
2019-Aug-18 15:00N 25°47' W 080°10'0 0.0
2019-Aug-18 14:27N 25°47' W 080°10'0 0.0
2019-Aug-18 14:00N 25°47' W 080°10'0 0.0
2019-Aug-18 13:30N 25°47' W 080°10'0 0.0
2019-Aug-18 12:57N 25°47' W 080°10'0 0.0
2019-Aug-18 12:30N 25°47' W 080°10'0 0.0
2019-Aug-18 12:00N 25°47' W 080°10'0 0.0
2019-Aug-18 11:30N 25°47' W 080°10'0 0.0
2019-Aug-18 11:00N 25°47' W 080°10'0 0.0
2019-Aug-18 10:30N 25°47' W 080°10'1 1.0
2019-Aug-18 10:01N 25°47' W 080°11'2 4.6
2019-Aug-18 09:31N 25°46' W 080°09'611.3
2019-Aug-18 09:01N 25°47' W 080°02'510.7
2019-Aug-18 08:30N 25°44' W 079°57'713.1
2019-Aug-18 08:01N 25°38' W 079°56'1313.1
2019-Aug-18 07:00N 25°24' W 079°55'713.3
2019-Aug-18 06:31N 25°18' W 079°58'47515.0
2019-Aug-16 22:45N 20°38' W 086°54'518.9
2019-Aug-16 22:30N 20°34' W 086°57'3 6.1
2019-Aug-16 21:59N 20°31' W 086°57'0 0.0
2019-Aug-16 21:29N 20°31' W 086°57'0 0.0
2019-Aug-16 20:59N 20°31' W 086°57'0 0.0
2019-Aug-16 20:29N 20°31' W 086°57'0 0.0
2019-Aug-16 19:59N 20°31' W 086°57'0 0.0
2019-Aug-16 19:29N 20°31' W 086°57'0 0.0
2019-Aug-16 18:59N 20°31' W 086°57'0 0.0
2019-Aug-16 18:29N 20°31' W 086°57'0 0.0
2019-Aug-16 17:56N 20°31' W 086°57'0 0.0
2019-Aug-16 17:29N 20°31' W 086°57'0 0.0
2019-Aug-16 16:59N 20°31' W 086°57'0 0.0
2019-Aug-16 16:26N 20°31' W 086°57'0 0.0
2019-Aug-16 15:59N 20°31' W 086°57'0 0.0
2019-Aug-16 15:29N 20°31' W 086°57'0 0.0
2019-Aug-16 14:59N 20°31' W 086°57'0 0.0
2019-Aug-16 14:26N 20°31' W 086°57'0 0.0
2019-Aug-16 13:59N 20°31' W 086°57'0 0.0
2019-Aug-16 13:29N 20°31' W 086°57'0 0.0
2019-Aug-16 12:59N 20°31' W 086°57'0 0.0
2019-Aug-16 12:30N 20°31' W 086°57'1 2.7
2019-Aug-16 12:00N 20°30' W 086°58'4 8.1
2019-Aug-16 11:30N 20°27' W 087°02'510.3
2019-Aug-16 11:00N 20°23' W 087°04'510.7
2019-Aug-16 10:30N 20°17' W 087°04'  

Dump ship's entire track history